sensor_id;sensor_type;location;lat;lon;timestamp;temperature;humidity
34833;DHT22;55941;50.800;4.342;2023-02-12T00:00:39;9.60;99.90
34833;DHT22;55941;50.800;4.342;2023-02-12T00:03:06;9.60;99.90
34833;DHT22;55941;50.800;4.342;2023-02-12T00:05:32;9.50;99.90
34833;DHT22;55941;50.800;4.342;2023-02-12T00:07:58;9.40;99.90
34833;DHT22;55941;50.800;4.342;2023-02-12T00:10:24;9.40;99.90
34833;DHT22;55941;50.800;4.342;2023-02-12T00:12:52;9.30;99.90
34833;DHT22;55941;50.800;4.342;2023-02-12T00:15:19;9.30;99.90
34833;DHT22;55941;50.800;4.342;2023-02-12T00:17:45;9.30;99.90
34833;DHT22;55941;50.800;4.342;2023-02-12T00:20:11;9.40;99.90
34833;DHT22;55941;50.800;4.342;2023-02-12T00:22:36;9.30;99.90
34833;DHT22;55941;50.800;4.342;2023-02-12T00:25:03;9.40;99.90
34833;DHT22;55941;50.800;4.342;2023-02-12T00:27:32;9.30;99.90
34833;DHT22;55941;50.800;4.342;2023-02-12T00:29:58;9.30;99.90
34833;DHT22;55941;50.800;4.342;2023-02-12T00:32:24;9.40;99.90
34833;DHT22;55941;50.800;4.342;2023-02-12T00:34:51;9.30;99.90
34833;DHT22;55941;50.800;4.342;2023-02-12T00:37:17;9.40;99.90
34833;DHT22;55941;50.800;4.342;2023-02-12T00:39:45;9.40;99.90
34833;DHT22;55941;50.800;4.342;2023-02-12T00:42:11;9.40;99.90
34833;DHT22;55941;50.800;4.342;2023-02-12T00:44:37;9.30;99.90
34833;DHT22;55941;50.800;4.342;2023-02-12T00:47:03;9.30;99.90
34833;DHT22;55941;50.800;4.342;2023-02-12T00:49:31;9.30;99.90
34833;DHT22;55941;50.800;4.342;2023-02-12T00:52:02;9.30;99.90
34833;DHT22;55941;50.800;4.342;2023-02-12T00:54:31;9.40;99.90
34833;DHT22;55941;50.800;4.342;2023-02-12T00:56:57;9.40;99.90
34833;DHT22;55941;50.800;4.342;2023-02-12T00:59:24;9.30;99.90
34833;DHT22;55941;50.800;4.342;2023-02-12T01:01:52;9.30;99.90
34833;DHT22;55941;50.800;4.342;2023-02-12T01:04:19;9.20;99.90
34833;DHT22;55941;50.800;4.342;2023-02-12T01:06:46;9.20;99.90
34833;DHT22;55941;50.800;4.342;2023-02-12T01:09:15;9.20;99.90
34833;DHT22;55941;50.800;4.342;2023-02-12T01:11:45;9.20;99.90
34833;DHT22;55941;50.800;4.342;2023-02-12T01:14:11;9.30;99.90
34833;DHT22;55941;50.800;4.342;2023-02-12T01:16:38;9.20;99.90
34833;DHT22;55941;50.800;4.342;2023-02-12T01:19:04;9.20;99.90
34833;DHT22;55941;50.800;4.342;2023-02-12T01:21:32;9.20;99.90
34833;DHT22;55941;50.800;4.342;2023-02-12T01:24:00;9.40;99.90
34833;DHT22;55941;50.800;4.342;2023-02-12T01:26:27;9.40;99.90
34833;DHT22;55941;50.800;4.342;2023-02-12T01:28:55;9.40;99.90
34833;DHT22;55941;50.800;4.342;2023-02-12T01:31:25;9.30;99.90
34833;DHT22;55941;50.800;4.342;2023-02-12T01:33:53;9.20;99.90
34833;DHT22;55941;50.800;4.342;2023-02-12T01:36:19;9.10;99.90
34833;DHT22;55941;50.800;4.342;2023-02-12T01:38:45;9.00;99.90
34833;DHT22;55941;50.800;4.342;2023-02-12T01:41:14;9.10;99.90
34833;DHT22;55941;50.800;4.342;2023-02-12T01:43:41;9.10;99.90
34833;DHT22;55941;50.800;4.342;2023-02-12T01:46:11;9.20;99.90
34833;DHT22;55941;50.800;4.342;2023-02-12T01:48:43;9.10;99.90
34833;DHT22;55941;50.800;4.342;2023-02-12T01:51:11;9.30;99.90
34833;DHT22;55941;50.800;4.342;2023-02-12T01:53:43;9.40;99.90
34833;DHT22;55941;50.800;4.342;2023-02-12T01:56:10;9.20;99.90
34833;DHT22;55941;50.800;4.342;2023-02-12T01:58:39;9.30;99.90
34833;DHT22;55941;50.800;4.342;2023-02-12T02:01:08;9.20;99.90
34833;DHT22;55941;50.800;4.342;2023-02-12T02:03:36;9.30;99.90
34833;DHT22;55941;50.800;4.342;2023-02-12T02:06:10;9.30;99.90
34833;DHT22;55941;50.800;4.342;2023-02-12T02:08:37;9.40;99.90
34833;DHT22;55941;50.800;4.342;2023-02-12T02:11:03;9.30;99.90
34833;DHT22;55941;50.800;4.342;2023-02-12T02:13:49;9.10;99.90
34833;DHT22;55941;50.800;4.342;2023-02-12T02:16:35;9.00;99.90
34833;DHT22;55941;50.800;4.342;2023-02-12T02:19:11;9.00;99.90
34833;DHT22;55941;50.800;4.342;2023-02-12T02:24:43;8.90;99.90
34833;DHT22;55941;50.800;4.342;2023-02-12T02:30:18;8.90;99.90
34833;DHT22;55941;50.800;4.342;2023-02-12T02:32:55;8.90;99.90
34833;DHT22;55941;50.800;4.342;2023-02-12T02:35:40;8.80;99.90
34833;DHT22;55941;50.800;4.342;2023-02-12T02:41:08;8.80;99.90
34833;DHT22;55941;50.800;4.342;2023-02-12T02:43:48;8.80;99.90
34833;DHT22;55941;50.800;4.342;2023-02-12T02:46:33;9.00;99.90
34833;DHT22;55941;50.800;4.342;2023-02-12T02:49:05;8.90;99.90
34833;DHT22;55941;50.800;4.342;2023-02-12T02:51:44;8.80;99.90
34833;DHT22;55941;50.800;4.342;2023-02-12T02:54:25;8.90;99.90
34833;DHT22;55941;50.800;4.342;2023-02-12T02:56:57;9.00;99.90
34833;DHT22;55941;50.800;4.342;2023-02-12T02:59:30;8.90;99.90
34833;DHT22;55941;50.800;4.342;2023-02-12T03:02:51;8.80;99.90
34833;DHT22;55941;50.800;4.342;2023-02-12T03:05:18;8.80;99.90
34833;DHT22;55941;50.800;4.342;2023-02-12T03:08:19;8.70;99.90
34833;DHT22;55941;50.800;4.342;2023-02-12T03:10:52;8.80;99.90
34833;DHT22;55941;50.800;4.342;2023-02-12T03:16:02;8.90;99.90
34833;DHT22;55941;50.800;4.342;2023-02-12T03:18:35;8.80;99.90
34833;DHT22;55941;50.800;4.342;2023-02-12T03:21:12;8.70;99.90
34833;DHT22;55941;50.800;4.342;2023-02-12T03:24:08;8.70;99.90
34833;DHT22;55941;50.800;4.342;2023-02-12T03:29:27;8.80;99.90
34833;DHT22;55941;50.800;4.342;2023-02-12T03:32:12;8.80;99.90
34833;DHT22;55941;50.800;4.342;2023-02-12T03:34:49;8.70;99.90
34833;DHT22;55941;50.800;4.342;2023-02-12T03:40:27;8.70;99.90
34833;DHT22;55941;50.800;4.342;2023-02-12T03:45:48;8.80;99.90
34833;DHT22;55941;50.800;4.342;2023-02-12T03:53:19;8.60;99.90
34833;DHT22;55941;50.800;4.342;2023-02-12T03:55:49;8.60;99.90
34833;DHT22;55941;50.800;4.342;2023-02-12T03:58:20;8.60;99.90
34833;DHT22;55941;50.800;4.342;2023-02-12T04:00:47;8.60;99.90
34833;DHT22;55941;50.800;4.342;2023-02-12T04:03:14;8.60;99.90
34833;DHT22;55941;50.800;4.342;2023-02-12T04:05:40;8.60;99.90
34833;DHT22;55941;50.800;4.342;2023-02-12T04:08:07;8.70;99.90
34833;DHT22;55941;50.800;4.342;2023-02-12T04:13:27;8.60;99.90
34833;DHT22;55941;50.800;4.342;2023-02-12T04:16:21;8.60;99.90
34833;DHT22;55941;50.800;4.342;2023-02-12T04:18:50;8.60;99.90
34833;DHT22;55941;50.800;4.342;2023-02-12T04:37:49;8.80;99.90
34833;DHT22;55941;50.800;4.342;2023-02-12T04:40:18;8.70;99.90
34833;DHT22;55941;50.800;4.342;2023-02-12T04:42:50;8.70;99.90
34833;DHT22;55941;50.800;4.342;2023-02-12T04:45:37;8.80;99.90
34833;DHT22;55941;50.800;4.342;2023-02-12T04:48:03;8.80;99.90
34833;DHT22;55941;50.800;4.342;2023-02-12T04:50:40;8.80;99.90
34833;DHT22;55941;50.800;4.342;2023-02-12T04:53:07;8.90;99.90
34833;DHT22;55941;50.800;4.342;2023-02-12T04:55:34;8.90;99.90
34833;DHT22;55941;50.800;4.342;2023-02-12T04:58:02;8.80;99.90
34833;DHT22;55941;50.800;4.342;2023-02-12T05:00:28;8.80;99.90
34833;DHT22;55941;50.800;4.342;2023-02-12T05:02:55;8.80;99.90
34833;DHT22;55941;50.800;4.342;2023-02-12T05:05:21;8.80;99.90
34833;DHT22;55941;50.800;4.342;2023-02-12T05:07:48;9.00;99.90
34833;DHT22;55941;50.800;4.342;2023-02-12T05:10:14;9.20;99.90
34833;DHT22;55941;50.800;4.342;2023-02-12T05:12:40;9.20;99.90
34833;DHT22;55941;50.800;4.342;2023-02-12T05:15:06;9.10;99.90
34833;DHT22;55941;50.800;4.342;2023-02-12T05:17:32;9.10;99.90
34833;DHT22;55941;50.800;4.342;2023-02-12T05:19:59;9.00;99.90
34833;DHT22;55941;50.800;4.342;2023-02-12T05:22:25;8.80;99.90
34833;DHT22;55941;50.800;4.342;2023-02-12T05:24:51;8.80;99.90
34833;DHT22;55941;50.800;4.342;2023-02-12T05:27:17;8.80;99.90
34833;DHT22;55941;50.800;4.342;2023-02-12T05:29:43;8.90;99.90
34833;DHT22;55941;50.800;4.342;2023-02-12T05:32:09;8.90;99.90
34833;DHT22;55941;50.800;4.342;2023-02-12T05:34:36;9.00;99.90
34833;DHT22;55941;50.800;4.342;2023-02-12T05:37:02;8.90;99.90
34833;DHT22;55941;50.800;4.342;2023-02-12T05:39:28;8.90;99.90
34833;DHT22;55941;50.800;4.342;2023-02-12T05:41:54;9.00;99.90
34833;DHT22;55941;50.800;4.342;2023-02-12T05:44:20;9.20;99.90
34833;DHT22;55941;50.800;4.342;2023-02-12T05:46:47;9.20;99.90
34833;DHT22;55941;50.800;4.342;2023-02-12T05:49:13;9.30;99.90
34833;DHT22;55941;50.800;4.342;2023-02-12T05:51:39;9.20;99.90
34833;DHT22;55941;50.800;4.342;2023-02-12T05:54:06;9.10;99.90
34833;DHT22;55941;50.800;4.342;2023-02-12T05:56:40;9.00;99.90
34833;DHT22;55941;50.800;4.342;2023-02-12T05:59:11;9.20;99.90
34833;DHT22;55941;50.800;4.342;2023-02-12T06:01:41;9.10;99.90
34833;DHT22;55941;50.800;4.342;2023-02-12T06:04:14;9.10;99.90
34833;DHT22;55941;50.800;4.342;2023-02-12T06:06:39;9.00;99.90
34833;DHT22;55941;50.800;4.342;2023-02-12T06:09:07;9.00;99.90
34833;DHT22;55941;50.800;4.342;2023-02-12T06:11:33;9.10;99.90
34833;DHT22;55941;50.800;4.342;2023-02-12T06:14:07;9.00;99.90
34833;DHT22;55941;50.800;4.342;2023-02-12T06:16:34;9.00;99.90
34833;DHT22;55941;50.800;4.342;2023-02-12T06:19:02;9.00;99.90
34833;DHT22;55941;50.800;4.342;2023-02-12T06:21:30;9.00;99.90
34833;DHT22;55941;50.800;4.342;2023-02-12T06:23:56;8.90;99.90
34833;DHT22;55941;50.800;4.342;2023-02-12T06:26:23;8.80;99.90
34833;DHT22;55941;50.800;4.342;2023-02-12T06:28:49;8.80;99.90
34833;DHT22;55941;50.800;4.342;2023-02-12T06:31:25;8.80;99.90
34833;DHT22;55941;50.800;4.342;2023-02-12T06:33:53;8.70;99.90
34833;DHT22;55941;50.800;4.342;2023-02-12T06:36:20;8.80;99.90
34833;DHT22;55941;50.800;4.342;2023-02-12T06:38:48;8.80;99.90
34833;DHT22;55941;50.800;4.342;2023-02-12T06:41:14;8.70;99.90
34833;DHT22;55941;50.800;4.342;2023-02-12T06:43:40;8.90;99.90
34833;DHT22;55941;50.800;4.342;2023-02-12T06:46:06;8.80;99.90
34833;DHT22;55941;50.800;4.342;2023-02-12T06:48:32;8.80;99.90
34833;DHT22;55941;50.800;4.342;2023-02-12T06:51:09;8.90;99.90
34833;DHT22;55941;50.800;4.342;2023-02-12T06:53:35;9.00;99.90
34833;DHT22;55941;50.800;4.342;2023-02-12T06:56:03;9.00;99.90
34833;DHT22;55941;50.800;4.342;2023-02-12T06:58:30;8.90;99.90
34833;DHT22;55941;50.800;4.342;2023-02-12T07:00:56;8.90;99.90
34833;DHT22;55941;50.800;4.342;2023-02-12T07:03:22;8.80;99.90
34833;DHT22;55941;50.800;4.342;2023-02-12T07:05:49;8.80;99.90
34833;DHT22;55941;50.800;4.342;2023-02-12T07:08:15;8.70;99.90
34833;DHT22;55941;50.800;4.342;2023-02-12T07:10:41;8.70;99.90
34833;DHT22;55941;50.800;4.342;2023-02-12T07:13:07;8.60;99.90
34833;DHT22;55941;50.800;4.342;2023-02-12T07:15:34;8.60;99.90
34833;DHT22;55941;50.800;4.342;2023-02-12T07:18:03;8.70;99.90
34833;DHT22;55941;50.800;4.342;2023-02-12T07:20:30;8.80;99.90
34833;DHT22;55941;50.800;4.342;2023-02-12T07:22:56;8.80;99.90
34833;DHT22;55941;50.800;4.342;2023-02-12T07:25:23;8.70;99.90
34833;DHT22;55941;50.800;4.342;2023-02-12T07:27:48;8.60;99.90
34833;DHT22;55941;50.800;4.342;2023-02-12T07:30:15;8.60;99.90
34833;DHT22;55941;50.800;4.342;2023-02-12T07:32:42;8.50;99.90
34833;DHT22;55941;50.800;4.342;2023-02-12T07:35:09;8.50;99.90
34833;DHT22;55941;50.800;4.342;2023-02-12T07:37:35;8.50;99.90
34833;DHT22;55941;50.800;4.342;2023-02-12T07:40:00;8.70;99.90
34833;DHT22;55941;50.800;4.342;2023-02-12T07:42:26;8.70;99.90
34833;DHT22;55941;50.800;4.342;2023-02-12T07:44:55;8.70;99.90
34833;DHT22;55941;50.800;4.342;2023-02-12T07:47:20;8.70;99.90
34833;DHT22;55941;50.800;4.342;2023-02-12T07:49:46;8.90;99.90
34833;DHT22;55941;50.800;4.342;2023-02-12T07:52:13;8.80;99.90
34833;DHT22;55941;50.800;4.342;2023-02-12T07:54:39;8.70;99.90
34833;DHT22;55941;50.800;4.342;2023-02-12T07:57:05;8.60;99.90
34833;DHT22;55941;50.800;4.342;2023-02-12T07:59:31;8.60;99.90
34833;DHT22;55941;50.800;4.342;2023-02-12T08:01:57;8.80;99.90
34833;DHT22;55941;50.800;4.342;2023-02-12T08:04:25;9.00;99.90
34833;DHT22;55941;50.800;4.342;2023-02-12T08:06:53;9.00;99.90
34833;DHT22;55941;50.800;4.342;2023-02-12T08:09:22;9.00;99.90
34833;DHT22;55941;50.800;4.342;2023-02-12T08:11:48;9.00;99.90
34833;DHT22;55941;50.800;4.342;2023-02-12T08:14:16;9.00;99.90
34833;DHT22;55941;50.800;4.342;2023-02-12T08:16:43;8.90;99.90
34833;DHT22;55941;50.800;4.342;2023-02-12T08:19:09;8.80;99.90
34833;DHT22;55941;50.800;4.342;2023-02-12T08:21:36;8.80;99.90
34833;DHT22;55941;50.800;4.342;2023-02-12T08:24:02;8.80;99.90
34833;DHT22;55941;50.800;4.342;2023-02-12T08:26:31;8.80;99.90
34833;DHT22;55941;50.800;4.342;2023-02-12T08:29:00;8.80;99.90
34833;DHT22;55941;50.800;4.342;2023-02-12T08:31:30;8.90;99.90
34833;DHT22;55941;50.800;4.342;2023-02-12T08:33:56;9.00;99.90
34833;DHT22;55941;50.800;4.342;2023-02-12T08:36:25;8.90;99.90
34833;DHT22;55941;50.800;4.342;2023-02-12T08:38:51;8.90;99.90
34833;DHT22;55941;50.800;4.342;2023-02-12T08:41:24;8.90;99.90
34833;DHT22;55941;50.800;4.342;2023-02-12T08:43:52;9.00;99.90
34833;DHT22;55941;50.800;4.342;2023-02-12T08:46:21;9.10;99.90
34833;DHT22;55941;50.800;4.342;2023-02-12T08:48:47;9.20;99.90
34833;DHT22;55941;50.800;4.342;2023-02-12T08:51:19;9.20;99.90
34833;DHT22;55941;50.800;4.342;2023-02-12T08:53:47;9.40;99.90
34833;DHT22;55941;50.800;4.342;2023-02-12T08:56:16;9.40;99.90
34833;DHT22;55941;50.800;4.342;2023-02-12T08:58:43;9.40;99.90
34833;DHT22;55941;50.800;4.342;2023-02-12T09:01:11;9.40;99.90
34833;DHT22;55941;50.800;4.342;2023-02-12T09:03:38;9.40;99.90
34833;DHT22;55941;50.800;4.342;2023-02-12T09:06:05;9.40;99.90
34833;DHT22;55941;50.800;4.342;2023-02-12T09:08:31;9.40;99.90
34833;DHT22;55941;50.800;4.342;2023-02-12T09:10:58;9.40;99.90
34833;DHT22;55941;50.800;4.342;2023-02-12T09:13:24;9.40;99.90
34833;DHT22;55941;50.800;4.342;2023-02-12T09:15:50;9.40;99.90
34833;DHT22;55941;50.800;4.342;2023-02-12T09:18:16;9.40;99.90
34833;DHT22;55941;50.800;4.342;2023-02-12T09:20:46;9.50;99.90
34833;DHT22;55941;50.800;4.342;2023-02-12T09:23:13;9.50;99.90
34833;DHT22;55941;50.800;4.342;2023-02-12T09:25:41;9.50;99.90
34833;DHT22;55941;50.800;4.342;2023-02-12T09:28:08;9.70;99.90
34833;DHT22;55941;50.800;4.342;2023-02-12T09:30:36;9.60;99.90
34833;DHT22;55941;50.800;4.342;2023-02-12T09:33:02;9.70;99.90
34833;DHT22;55941;50.800;4.342;2023-02-12T09:35:28;9.70;99.90
34833;DHT22;55941;50.800;4.342;2023-02-12T09:37:54;9.70;99.90
34833;DHT22;55941;50.800;4.342;2023-02-12T09:40:25;9.80;99.90
34833;DHT22;55941;50.800;4.342;2023-02-12T09:43:15;9.80;99.90
34833;DHT22;55941;50.800;4.342;2023-02-12T09:46:05;9.90;99.90
34833;DHT22;55941;50.800;4.342;2023-02-12T09:51:09;10.00;99.90
34833;DHT22;55941;50.800;4.342;2023-02-12T09:53:41;10.10;99.90
34833;DHT22;55941;50.800;4.342;2023-02-12T09:56:19;10.10;99.90
34833;DHT22;55941;50.800;4.342;2023-02-12T09:58:51;10.10;99.90
34833;DHT22;55941;50.800;4.342;2023-02-12T10:01:19;10.00;99.90
34833;DHT22;55941;50.800;4.342;2023-02-12T10:03:47;9.90;99.90
34833;DHT22;55941;50.800;4.342;2023-02-12T10:06:30;9.90;99.90
34833;DHT22;55941;50.800;4.342;2023-02-12T10:09:04;9.90;99.90
34833;DHT22;55941;50.800;4.342;2023-02-12T10:11:42;9.80;99.90
34833;DHT22;55941;50.800;4.342;2023-02-12T10:14:54;9.80;99.90
34833;DHT22;55941;50.800;4.342;2023-02-12T10:17:39;9.80;99.90
34833;DHT22;55941;50.800;4.342;2023-02-12T10:22:44;9.80;99.90
34833;DHT22;55941;50.800;4.342;2023-02-12T10:27:53;9.90;99.90
34833;DHT22;55941;50.800;4.342;2023-02-12T10:30:23;9.90;99.90
34833;DHT22;55941;50.800;4.342;2023-02-12T10:32:59;9.70;99.90
34833;DHT22;55941;50.800;4.342;2023-02-12T10:35:26;9.80;99.90
34833;DHT22;55941;50.800;4.342;2023-02-12T10:40:30;9.80;99.90
34833;DHT22;55941;50.800;4.342;2023-02-12T10:42:59;9.90;99.90
34833;DHT22;55941;50.800;4.342;2023-02-12T10:45:34;10.00;99.90
34833;DHT22;55941;50.800;4.342;2023-02-12T10:48:14;10.00;99.90
34833;DHT22;55941;50.800;4.342;2023-02-12T10:53:38;10.20;99.90
34833;DHT22;55941;50.800;4.342;2023-02-12T10:56:23;10.30;99.90
34833;DHT22;55941;50.800;4.342;2023-02-12T10:58:56;10.20;99.90
34833;DHT22;55941;50.800;4.342;2023-02-12T11:01:36;10.20;99.90
34833;DHT22;55941;50.800;4.342;2023-02-12T11:04:31;10.30;99.90
34833;DHT22;55941;50.800;4.342;2023-02-12T11:07:03;10.40;99.90
34833;DHT22;55941;50.800;4.342;2023-02-12T11:09:35;10.20;99.90
34833;DHT22;55941;50.800;4.342;2023-02-12T11:12:33;10.30;99.90
34833;DHT22;55941;50.800;4.342;2023-02-12T11:15:13;10.30;99.90
34833;DHT22;55941;50.800;4.342;2023-02-12T11:17:43;10.50;99.90
34833;DHT22;55941;50.800;4.342;2023-02-12T11:22:59;10.60;99.90
34833;DHT22;55941;50.800;4.342;2023-02-12T11:25:36;10.60;99.90
34833;DHT22;55941;50.800;4.342;2023-02-12T11:28:14;10.70;99.90
34833;DHT22;55941;50.800;4.342;2023-02-12T11:33:29;10.90;99.90
34833;DHT22;55941;50.800;4.342;2023-02-12T11:35:56;10.80;99.90
34833;DHT22;55941;50.800;4.342;2023-02-12T11:38:32;10.90;99.90
34833;DHT22;55941;50.800;4.342;2023-02-12T11:41:48;11.00;99.90
34833;DHT22;55941;50.800;4.342;2023-02-12T11:43:46;11.00;99.90
34833;DHT22;55941;50.800;4.342;2023-02-12T11:46:21;11.00;99.90
34833;DHT22;55941;50.800;4.342;2023-02-12T11:48:50;10.90;99.90
34833;DHT22;55941;50.800;4.342;2023-02-12T11:51:27;10.80;99.90
34833;DHT22;55941;50.800;4.342;2023-02-12T11:53:56;10.80;99.90
34833;DHT22;55941;50.800;4.342;2023-02-12T11:56:24;10.70;99.90
34833;DHT22;55941;50.800;4.342;2023-02-12T11:59:34;10.70;99.90
34833;DHT22;55941;50.800;4.342;2023-02-12T12:02:14;10.80;99.90
34833;DHT22;55941;50.800;4.342;2023-02-12T12:04:43;10.90;99.90
34833;DHT22;55941;50.800;4.342;2023-02-12T12:07:15;11.00;99.90
34833;DHT22;55941;50.800;4.342;2023-02-12T12:12:37;11.20;99.90
34833;DHT22;55941;50.800;4.342;2023-02-12T12:15:29;11.10;99.90
34833;DHT22;55941;50.800;4.342;2023-02-12T12:21:39;11.10;99.90
34833;DHT22;55941;50.800;4.342;2023-02-12T12:24:48;10.90;99.90
34833;DHT22;55941;50.800;4.342;2023-02-12T12:27:26;11.00;99.90
34833;DHT22;55941;50.800;4.342;2023-02-12T12:30:23;11.10;99.90
34833;DHT22;55941;50.800;4.342;2023-02-12T12:32:54;11.10;99.90
34833;DHT22;55941;50.800;4.342;2023-02-12T12:35:31;10.90;99.90
34833;DHT22;55941;50.800;4.342;2023-02-12T12:41:06;10.80;99.90
34833;DHT22;55941;50.800;4.342;2023-02-12T12:43:48;10.90;99.90
34833;DHT22;55941;50.800;4.342;2023-02-12T12:46:33;10.90;99.90
34833;DHT22;55941;50.800;4.342;2023-02-12T12:52:11;11.20;99.90
34833;DHT22;55941;50.800;4.342;2023-02-12T12:54:54;11.20;99.90
34833;DHT22;55941;50.800;4.342;2023-02-12T13:03:18;10.90;99.90
34833;DHT22;55941;50.800;4.342;2023-02-12T13:05:55;11.00;99.90
34833;DHT22;55941;50.800;4.342;2023-02-12T13:08:36;10.80;99.90
34833;DHT22;55941;50.800;4.342;2023-02-12T13:11:16;10.80;99.90
34833;DHT22;55941;50.800;4.342;2023-02-12T13:14:16;10.90;99.90
34833;DHT22;55941;50.800;4.342;2023-02-12T13:16:46;10.90;99.90
34833;DHT22;55941;50.800;4.342;2023-02-12T13:19:36;10.90;99.90
34833;DHT22;55941;50.800;4.342;2023-02-12T13:22:34;10.90;99.90
34833;DHT22;55941;50.800;4.342;2023-02-12T13:27:33;11.00;99.90
34833;DHT22;55941;50.800;4.342;2023-02-12T13:30:17;11.20;99.90
34833;DHT22;55941;50.800;4.342;2023-02-12T13:33:08;11.20;99.90
34833;DHT22;55941;50.800;4.342;2023-02-12T13:35:40;11.10;99.90
34833;DHT22;55941;50.800;4.342;2023-02-12T13:38:08;11.10;99.90
34833;DHT22;55941;50.800;4.342;2023-02-12T13:40:37;11.00;99.90
34833;DHT22;55941;50.800;4.342;2023-02-12T13:46:20;11.00;99.90
34833;DHT22;55941;50.800;4.342;2023-02-12T13:51:50;11.00;99.90
34833;DHT22;55941;50.800;4.342;2023-02-12T13:57:21;10.90;99.90
34833;DHT22;55941;50.800;4.342;2023-02-12T13:59:53;11.10;99.90
34833;DHT22;55941;50.800;4.342;2023-02-12T14:05:02;11.10;99.90
34833;DHT22;55941;50.800;4.342;2023-02-12T14:10:31;11.10;99.90
34833;DHT22;55941;50.800;4.342;2023-02-12T14:13:14;11.00;99.90
34833;DHT22;55941;50.800;4.342;2023-02-12T14:15:47;10.90;99.90
34833;DHT22;55941;50.800;4.342;2023-02-12T14:18:43;11.10;99.90
34833;DHT22;55941;50.800;4.342;2023-02-12T14:23:39;10.80;99.90
34833;DHT22;55941;50.800;4.342;2023-02-12T14:26:18;10.60;99.90
34833;DHT22;55941;50.800;4.342;2023-02-12T14:29:01;10.70;99.90
34833;DHT22;55941;50.800;4.342;2023-02-12T14:31:35;10.80;99.90
34833;DHT22;55941;50.800;4.342;2023-02-12T14:46:59;10.90;99.90
34833;DHT22;55941;50.800;4.342;2023-02-12T14:49:34;10.80;99.90
34833;DHT22;55941;50.800;4.342;2023-02-12T14:54:55;10.70;99.90
34833;DHT22;55941;50.800;4.342;2023-02-12T14:57:27;10.50;99.90
34833;DHT22;55941;50.800;4.342;2023-02-12T15:02:44;10.70;99.90
34833;DHT22;55941;50.800;4.342;2023-02-12T15:05:29;10.70;99.90
34833;DHT22;55941;50.800;4.342;2023-02-12T15:08:06;10.60;99.90
34833;DHT22;55941;50.800;4.342;2023-02-12T15:10:40;10.70;99.90
34833;DHT22;55941;50.800;4.342;2023-02-12T15:19:18;10.50;99.90
34833;DHT22;55941;50.800;4.342;2023-02-12T15:21:45;10.60;99.90
34833;DHT22;55941;50.800;4.342;2023-02-12T15:24:13;10.60;99.90
34833;DHT22;55941;50.800;4.342;2023-02-12T15:26:47;10.60;99.90
34833;DHT22;55941;50.800;4.342;2023-02-12T15:29:23;10.70;99.90
34833;DHT22;55941;50.800;4.342;2023-02-12T15:31:58;10.50;99.90
34833;DHT22;55941;50.800;4.342;2023-02-12T15:34:30;10.50;99.90
34833;DHT22;55941;50.800;4.342;2023-02-12T15:37:01;10.50;99.90
34833;DHT22;55941;50.800;4.342;2023-02-12T15:39:40;10.50;99.90
34833;DHT22;55941;50.800;4.342;2023-02-12T15:42:33;10.40;99.90
34833;DHT22;55941;50.800;4.342;2023-02-12T15:47:35;10.30;99.90
34833;DHT22;55941;50.800;4.342;2023-02-12T15:50:01;10.40;99.90
34833;DHT22;55941;50.800;4.342;2023-02-12T15:52:34;10.30;99.90
34833;DHT22;55941;50.800;4.342;2023-02-12T15:55:04;10.20;99.90
34833;DHT22;55941;50.800;4.342;2023-02-12T15:57:31;10.20;99.90
34833;DHT22;55941;50.800;4.342;2023-02-12T16:00:04;10.40;99.90
34833;DHT22;55941;50.800;4.342;2023-02-12T16:02:31;10.30;99.90
34833;DHT22;55941;50.800;4.342;2023-02-12T16:04:58;10.20;99.90
34833;DHT22;55941;50.800;4.342;2023-02-12T16:07:25;10.20;99.90
34833;DHT22;55941;50.800;4.342;2023-02-12T16:09:53;10.10;99.90
34833;DHT22;55941;50.800;4.342;2023-02-12T16:12:22;10.20;99.90
34833;DHT22;55941;50.800;4.342;2023-02-12T16:14:59;10.10;99.90
34833;DHT22;55941;50.800;4.342;2023-02-12T16:17:34;10.10;99.90
34833;DHT22;55941;50.800;4.342;2023-02-12T16:20:19;10.10;99.90
34833;DHT22;55941;50.800;4.342;2023-02-12T16:22:48;10.10;99.90
34833;DHT22;55941;50.800;4.342;2023-02-12T16:25:17;10.20;99.90
34833;DHT22;55941;50.800;4.342;2023-02-12T16:30:34;10.30;99.90
34833;DHT22;55941;50.800;4.342;2023-02-12T16:33:04;10.20;99.90
34833;DHT22;55941;50.800;4.342;2023-02-12T16:36:01;10.20;99.90
34833;DHT22;55941;50.800;4.342;2023-02-12T16:41:23;10.00;99.90
34833;DHT22;55941;50.800;4.342;2023-02-12T16:43:50;10.00;99.90
34833;DHT22;55941;50.800;4.342;2023-02-12T16:46:58;10.00;99.90
34833;DHT22;55941;50.800;4.342;2023-02-12T16:49:25;10.10;99.90
34833;DHT22;55941;50.800;4.342;2023-02-12T16:51:52;10.10;99.90
34833;DHT22;55941;50.800;4.342;2023-02-12T16:54:34;10.10;99.90
34833;DHT22;55941;50.800;4.342;2023-02-12T16:57:00;10.10;99.90
34833;DHT22;55941;50.800;4.342;2023-02-12T16:59:26;10.10;99.90
34833;DHT22;55941;50.800;4.342;2023-02-12T17:02:05;10.00;99.90
34833;DHT22;55941;50.800;4.342;2023-02-12T17:04:34;9.90;99.90
34833;DHT22;55941;50.800;4.342;2023-02-12T17:06:59;9.90;99.90
34833;DHT22;55941;50.800;4.342;2023-02-12T17:09:25;10.00;99.90
34833;DHT22;55941;50.800;4.342;2023-02-12T17:11:54;9.80;99.90
34833;DHT22;55941;50.800;4.342;2023-02-12T17:14:20;9.80;99.90
34833;DHT22;55941;50.800;4.342;2023-02-12T17:16:46;9.80;99.90
34833;DHT22;55941;50.800;4.342;2023-02-12T17:19:13;9.70;99.90
34833;DHT22;55941;50.800;4.342;2023-02-12T17:21:43;9.80;99.90
34833;DHT22;55941;50.800;4.342;2023-02-12T17:24:21;9.70;99.90
34833;DHT22;55941;50.800;4.342;2023-02-12T17:26:51;9.60;99.90
34833;DHT22;55941;50.800;4.342;2023-02-12T17:29:19;9.70;99.90
34833;DHT22;55941;50.800;4.342;2023-02-12T17:31:45;9.70;99.90
34833;DHT22;55941;50.800;4.342;2023-02-12T17:34:13;9.70;99.90
34833;DHT22;55941;50.800;4.342;2023-02-12T17:36:39;9.80;99.90
34833;DHT22;55941;50.800;4.342;2023-02-12T17:39:10;9.80;99.90
34833;DHT22;55941;50.800;4.342;2023-02-12T17:41:37;9.80;99.90
34833;DHT22;55941;50.800;4.342;2023-02-12T17:44:13;9.80;99.90
34833;DHT22;55941;50.800;4.342;2023-02-12T17:46:42;9.70;99.90
34833;DHT22;55941;50.800;4.342;2023-02-12T17:49:11;9.70;99.90
34833;DHT22;55941;50.800;4.342;2023-02-12T17:51:38;9.80;99.90
34833;DHT22;55941;50.800;4.342;2023-02-12T17:54:04;9.80;99.90
34833;DHT22;55941;50.800;4.342;2023-02-12T17:56:31;9.90;99.90
34833;DHT22;55941;50.800;4.342;2023-02-12T17:58:58;9.80;99.90
34833;DHT22;55941;50.800;4.342;2023-02-12T18:01:25;9.70;99.90
34833;DHT22;55941;50.800;4.342;2023-02-12T18:03:51;9.70;99.90
34833;DHT22;55941;50.800;4.342;2023-02-12T18:06:30;9.80;99.90
34833;DHT22;55941;50.800;4.342;2023-02-12T18:08:57;9.90;99.90
34833;DHT22;55941;50.800;4.342;2023-02-12T18:11:24;9.80;99.90
34833;DHT22;55941;50.800;4.342;2023-02-12T18:13:55;9.80;99.90
34833;DHT22;55941;50.800;4.342;2023-02-12T18:16:22;9.80;99.90
34833;DHT22;55941;50.800;4.342;2023-02-12T18:18:51;9.70;99.90
34833;DHT22;55941;50.800;4.342;2023-02-12T18:21:16;9.80;99.90
34833;DHT22;55941;50.800;4.342;2023-02-12T18:23:42;9.70;99.90